Hennepin, Oklahoma
Current Conditions -  °F | °C
As of 11:35 PM on Tuesday 25 Nov 2014 (Local Time) from KPVJ Reporting Station
Clear Clear  
Wind Chill: 38°   Ceiling: Unl
Heat Index: 41°   Visibility: 10mi
Dew Point: 28°   Wind: 5mph
Humidity: 60%   Direction: 160°SSE
Pressure: 30.03"   Gusts: NA
Location:  34.51°N, 97.35°W
Report Text: KPVJ 260535Z AUTO 16004KT 10SM CLR 05/M02 A3003 RMK AO2 T00511020
Loading
Personal Weather Stations






























Interactive Weather Map New forecast layout! Learn more

10-Day Weather Forecast

Advertisements
Track Severe Weather on mobile